createdAt,value
2022-10-13T00:00:50.833Z,9.18
2022-10-13T00:03:18.014Z,10.20
2022-10-13T00:05:47.063Z,9.15
2022-10-13T00:08:15.751Z,9.15
2022-10-13T00:10:43.868Z,10.40
2022-10-13T00:13:10.603Z,9.68
2022-10-13T00:15:38.591Z,10.85
2022-10-13T00:18:05.701Z,10.95
2022-10-13T00:20:32.492Z,10.52
2022-10-13T00:22:59.291Z,9.55
2022-10-13T00:25:26.187Z,9.73
2022-10-13T00:27:54.326Z,11.15
2022-10-13T00:30:21.204Z,10.57
2022-10-13T00:32:47.990Z,10.57
2022-10-13T00:35:14.735Z,9.98
2022-10-13T00:37:41.472Z,10.68
2022-10-13T00:40:09.132Z,10.25
2022-10-13T00:42:35.963Z,10.45
2022-10-13T00:45:19.726Z,11.32
2022-10-13T00:47:49.693Z,9.88
2022-10-13T00:50:20.004Z,10.35
2022-10-13T00:52:48.531Z,10.32
2022-10-13T00:55:20.104Z,10.02
2022-10-13T00:57:48.775Z,10.88
2022-10-13T01:00:17.232Z,10.30
2022-10-13T01:02:43.993Z,10.60
2022-10-13T01:05:10.788Z,10.73
2022-10-13T01:07:37.605Z,10.95
2022-10-13T01:10:05.172Z,10.50
2022-10-13T01:12:44.426Z,9.98
2022-10-13T01:15:17.276Z,10.68
2022-10-13T01:17:57.000Z,10.00
2022-10-13T01:20:55.985Z,10.25
2022-10-13T01:23:41.925Z,10.50
2022-10-13T01:26:33.641Z,10.35
2022-10-13T01:29:17.064Z,9.77
2022-10-13T01:31:51.264Z,11.15
2022-10-13T01:34:23.870Z,10.27
2022-10-13T01:36:57.606Z,10.63
2022-10-13T01:39:32.441Z,10.40
2022-10-13T01:42:13.088Z,9.93
2022-10-13T01:44:46.005Z,9.68
2022-10-13T02:00:22.633Z,9.35
2022-10-13T02:03:03.749Z,10.32
2022-10-13T02:05:41.744Z,9.27
2022-10-13T02:08:14.267Z,10.10
2022-10-13T02:10:47.349Z,10.23
2022-10-13T02:13:17.800Z,10.30
2022-10-13T02:15:51.653Z,8.98
2022-10-13T02:20:47.930Z,9.10
2022-10-13T02:23:16.918Z,10.82
2022-10-13T02:25:44.564Z,10.77
2022-10-13T02:28:14.344Z,10.60
2022-10-13T02:33:27.906Z,10.05
2022-10-13T02:35:54.752Z,10.35
2022-10-13T02:41:42.415Z,10.68
2022-10-13T02:44:09.650Z,12.50
2022-10-13T02:46:36.509Z,11.02
2022-10-13T02:49:04.739Z,11.45
2022-10-13T02:54:07.372Z,10.90
2022-10-13T02:59:32.748Z,11.57
2022-10-13T03:02:31.386Z,11.87
2022-10-13T03:04:59.538Z,11.80
2022-10-13T03:07:26.357Z,11.07
2022-10-13T03:10:05.193Z,12.87
2022-10-13T03:12:32.261Z,12.50
2022-10-13T03:14:59.079Z,11.02
2022-10-13T03:23:01.005Z,11.38
2022-10-13T03:25:27.913Z,10.50
2022-10-13T03:31:10.889Z,10.95
2022-10-13T03:36:24.645Z,10.57
2022-10-13T03:38:51.465Z,10.38
2022-10-13T03:44:08.051Z,11.02
2022-10-13T03:46:34.854Z,11.45
2022-10-13T03:49:01.674Z,10.27
2022-10-13T03:51:29.819Z,11.05
2022-10-13T03:53:56.633Z,10.77
2022-10-13T03:56:26.639Z,10.75
2022-10-13T03:58:55.525Z,11.07
2022-10-13T04:01:24.269Z,11.40
2022-10-13T04:03:52.909Z,10.55
2022-10-13T04:09:20.097Z,10.05
2022-10-13T04:11:50.109Z,11.00
2022-10-13T04:14:16.869Z,10.95
2022-10-13T04:16:43.701Z,11.13
2022-10-13T04:19:13.132Z,10.98
2022-10-13T04:21:41.134Z,10.48
2022-10-13T04:24:11.668Z,11.95
2022-10-13T04:26:40.371Z,10.82
2022-10-13T04:29:08.841Z,12.30
2022-10-13T04:31:36.329Z,11.25
2022-10-13T04:34:03.152Z,13.40
2022-10-13T04:36:30.082Z,11.50
2022-10-13T04:38:56.868Z,12.10
2022-10-13T04:41:23.738Z,12.80
2022-10-13T04:43:53.486Z,12.68
2022-10-13T04:46:22.132Z,13.23
2022-10-13T04:48:49.818Z,14.38
2022-10-13T04:51:20.087Z,14.88
2022-10-13T04:53:47.591Z,14.13
2022-10-13T04:56:16.637Z,13.32
2022-10-13T04:58:45.179Z,14.38
2022-10-13T05:01:21.490Z,12.82
2022-10-13T05:03:51.428Z,13.35
2022-10-13T05:06:20.637Z,13.38
2022-10-13T05:08:47.614Z,13.15
2022-10-13T05:11:14.439Z,14.50
2022-10-13T05:13:41.214Z,13.55
2022-10-13T05:16:09.521Z,12.98
2022-10-13T05:18:38.010Z,12.40
2022-10-13T05:21:09.234Z,12.88
2022-10-13T05:23:36.106Z,12.45
2022-10-13T05:26:04.567Z,12.30
2022-10-13T05:28:31.390Z,13.70
2022-10-13T05:30:58.321Z,13.13
2022-10-13T05:33:25.282Z,13.35
2022-10-13T05:35:53.561Z,12.63
2022-10-13T05:38:25.171Z,13.18
2022-10-13T05:40:52.735Z,13.15
2022-10-13T05:43:19.469Z,13.27
2022-10-13T05:45:46.352Z,12.52
2022-10-13T05:48:13.050Z,12.57
2022-10-13T05:50:41.343Z,12.45
2022-10-13T05:53:09.466Z,12.60
2022-10-13T05:55:36.267Z,11.90
2022-10-13T05:58:03.041Z,11.85
2022-10-13T06:00:30.044Z,12.23
2022-10-13T06:03:03.901Z,12.82
2022-10-13T06:05:32.969Z,13.15
2022-10-13T06:08:00.367Z,12.45
2022-10-13T06:10:29.215Z,11.35
2022-10-13T06:12:55.951Z,11.63
2022-10-13T06:15:27.829Z,11.93
2022-10-13T06:17:55.052Z,11.07
2022-10-13T06:20:22.095Z,12.23
2022-10-13T06:22:50.435Z,11.82
2022-10-13T06:25:17.549Z,11.75
2022-10-13T06:27:45.692Z,12.07
2022-10-13T06:30:12.873Z,11.40
2022-10-13T06:32:39.671Z,10.95
2022-10-13T06:35:07.503Z,11.77
2022-10-13T06:37:34.712Z,11.18
2022-10-13T06:40:01.614Z,10.60
2022-10-13T06:42:31.748Z,10.32
2022-10-13T06:44:59.934Z,13.70
2022-10-13T06:47:26.799Z,10.48
2022-10-13T06:49:53.583Z,10.38
2022-10-13T06:52:21.024Z,10.60
2022-10-13T06:54:48.179Z,10.30
2022-10-13T06:57:14.991Z,9.55
2022-10-13T06:59:41.744Z,9.90
2022-10-13T07:02:11.196Z,10.10
2022-10-13T07:04:38.033Z,9.75
2022-10-13T07:07:04.783Z,10.80
2022-10-13T07:09:31.705Z,10.02
2022-10-13T07:11:58.487Z,9.93
2022-10-13T07:14:25.526Z,10.65
2022-10-13T07:16:52.340Z,10.45
2022-10-13T07:19:20.608Z,10.60
2022-10-13T07:21:47.403Z,10.27
2022-10-13T07:24:14.798Z,10.00
2022-10-13T07:26:41.568Z,10.45
2022-10-13T07:29:09.130Z,10.00
2022-10-13T07:31:36.158Z,11.50
2022-10-13T07:34:04.992Z,10.63
2022-10-13T07:36:33.543Z,10.55
2022-10-13T07:39:01.235Z,10.70
2022-10-13T07:41:28.105Z,9.80
2022-10-13T07:43:55.460Z,9.43
2022-10-13T07:46:22.885Z,9.48
2022-10-13T07:48:49.724Z,10.98
2022-10-13T07:51:16.541Z,10.63
2022-10-13T07:53:46.583Z,10.25
2022-10-13T07:56:14.677Z,11.43
2022-10-13T07:58:43.270Z,9.65
2022-10-13T08:01:10.614Z,10.77
2022-10-13T08:03:38.334Z,11.30
2022-10-13T08:06:06.251Z,10.18
2022-10-13T08:08:33.718Z,11.05
2022-10-13T08:11:02.968Z,11.30
2022-10-13T08:13:29.785Z,11.48
2022-10-13T08:16:00.464Z,11.55
2022-10-13T08:18:28.018Z,12.32
2022-10-13T08:21:04.213Z,12.50
2022-10-13T08:23:37.596Z,12.80
2022-10-13T08:26:06.016Z,12.15
2022-10-13T08:28:32.872Z,12.68
2022-10-13T08:30:59.840Z,12.93
2022-10-13T08:33:27.029Z,13.43
2022-10-13T08:35:54.034Z,14.55
2022-10-13T08:38:20.926Z,14.25
2022-10-13T08:40:49.044Z,14.32
2022-10-13T08:43:20.040Z,13.13
2022-10-13T08:45:49.682Z,14.45
2022-10-13T08:48:20.005Z,15.60
2022-10-13T08:50:51.293Z,14.77
2022-10-13T08:53:25.796Z,14.85
2022-10-13T08:55:56.474Z,15.73
2022-10-13T08:58:28.193Z,15.15
2022-10-13T09:01:05.601Z,15.35
2022-10-13T09:03:32.577Z,15.45
2022-10-13T09:06:10.667Z,16.15
2022-10-13T09:08:41.638Z,15.70
2022-10-13T09:11:10.886Z,15.70
2022-10-13T09:13:39.500Z,15.48
2022-10-13T09:16:07.530Z,14.05
2022-10-13T09:18:34.611Z,15.48
2022-10-13T09:21:20.553Z,15.40
2022-10-13T09:23:50.231Z,15.60
2022-10-13T09:26:20.443Z,15.73
2022-10-13T09:28:49.323Z,13.77
2022-10-13T09:31:21.517Z,15.38
2022-10-13T09:33:57.768Z,17.00
2022-10-13T09:36:24.602Z,14.43
2022-10-13T09:39:08.031Z,20.13
2022-10-13T09:41:36.108Z,19.67
2022-10-13T09:44:17.644Z,15.50
2022-10-13T09:46:51.740Z,14.85
2022-10-13T09:49:30.586Z,15.65
2022-10-13T09:52:02.920Z,14.18
2022-10-13T09:54:43.996Z,14.88
2022-10-13T09:57:17.696Z,14.75
2022-10-13T09:59:50.153Z,14.25
2022-10-13T10:02:33.070Z,14.18
2022-10-13T10:05:14.555Z,14.30
2022-10-13T10:07:41.414Z,13.68
2022-10-13T10:10:23.280Z,16.67
2022-10-13T10:12:50.924Z,13.75
2022-10-13T10:15:23.306Z,16.20
2022-10-13T10:17:55.956Z,13.70
2022-10-13T10:20:41.854Z,14.57
2022-10-13T10:23:14.574Z,13.30
2022-10-13T10:25:44.932Z,16.70
2022-10-13T10:28:38.408Z,15.25
2022-10-13T10:31:18.747Z,15.95
2022-10-13T10:33:56.171Z,19.70
2022-10-13T10:36:27.327Z,15.95
2022-10-13T10:39:00.197Z,15.00
2022-10-13T10:41:41.281Z,17.40
2022-10-13T10:44:11.495Z,17.80
2022-10-13T10:46:44.430Z,15.77
2022-10-13T10:49:18.130Z,15.18
2022-10-13T10:54:27.551Z,14.65
2022-10-13T10:56:58.488Z,14.07
2022-10-13T10:59:37.029Z,13.73
2022-10-13T11:02:19.544Z,12.35
2022-10-13T11:04:48.575Z,13.55
2022-10-13T11:07:55.068Z,13.32
2022-10-13T11:10:22.780Z,13.68
2022-10-13T11:13:22.407Z,13.75
2022-10-13T11:15:49.778Z,13.40
2022-10-13T11:18:59.200Z,15.00
2022-10-13T11:21:26.280Z,13.07
2022-10-13T11:23:53.192Z,14.02
2022-10-13T11:26:32.390Z,13.15
2022-10-13T11:28:59.950Z,13.95
2022-10-13T11:31:47.103Z,13.77
2022-10-13T11:34:28.913Z,14.05
2022-10-13T11:36:58.475Z,15.80
2022-10-13T11:39:55.389Z,14.38
2022-10-13T11:42:43.770Z,14.55
2022-10-13T11:45:23.490Z,14.82
2022-10-13T11:50:41.374Z,15.30
2022-10-13T11:53:18.827Z,16.10
2022-10-13T11:55:50.482Z,14.98
2022-10-13T11:58:20.248Z,13.43
2022-10-13T12:00:55.276Z,12.57
2022-10-13T12:03:25.849Z,13.02
2022-10-13T12:05:57.573Z,12.55
2022-10-13T12:08:25.784Z,13.10
2022-10-13T12:10:57.228Z,10.75
2022-10-13T12:13:26.732Z,10.43
2022-10-13T12:16:03.134Z,10.40
2022-10-13T12:18:34.297Z,11.02
2022-10-13T12:21:04.951Z,10.45
2022-10-13T12:23:33.302Z,10.50
2022-10-13T12:26:00.835Z,10.10
2022-10-13T12:28:31.072Z,10.57
2022-10-13T12:30:59.943Z,9.60
2022-10-13T12:33:31.549Z,12.68
2022-10-13T12:36:17.773Z,15.75
2022-10-13T12:38:49.426Z,19.38
2022-10-13T12:41:19.389Z,17.33
2022-10-13T12:43:46.794Z,18.80
2022-10-13T12:46:13.682Z,11.23
2022-10-13T12:48:40.521Z,11.07
2022-10-13T12:51:18.894Z,12.10
2022-10-13T12:53:47.083Z,11.60
2022-10-13T12:56:28.757Z,11.48
2022-10-13T12:58:57.203Z,11.07
2022-10-13T13:01:30.700Z,11.63
2022-10-13T13:04:00.437Z,12.70
2022-10-13T13:06:54.627Z,11.68
2022-10-13T13:09:24.970Z,11.68
2022-10-13T13:12:12.179Z,13.30
2022-10-13T13:14:40.721Z,12.63
2022-10-13T13:17:12.295Z,11.68
2022-10-13T13:19:40.311Z,12.32
2022-10-13T13:22:08.769Z,13.48
2022-10-13T13:24:40.206Z,13.27
2022-10-13T13:27:20.495Z,13.77
2022-10-13T13:29:47.984Z,12.25
2022-10-13T13:32:19.869Z,12.60
2022-10-13T13:34:47.459Z,12.05
2022-10-13T13:37:23.076Z,13.38
2022-10-13T13:39:50.304Z,14.18
2022-10-13T13:42:17.169Z,12.48
2022-10-13T13:44:44.146Z,12.40
2022-10-13T13:47:20.137Z,12.10
2022-10-13T13:49:48.093Z,11.63
2022-10-13T13:52:16.798Z,12.75
2022-10-13T13:54:43.650Z,11.95
2022-10-13T13:57:11.703Z,12.77
2022-10-13T13:59:39.119Z,11.63
2022-10-13T14:02:08.123Z,11.23
2022-10-13T14:04:34.987Z,11.02
2022-10-13T14:07:01.974Z,10.95
2022-10-13T14:09:30.432Z,11.60
2022-10-13T14:11:57.203Z,10.40
2022-10-13T14:14:24.289Z,10.93
2022-10-13T14:16:51.052Z,12.13
2022-10-13T14:19:17.872Z,13.73
2022-10-13T14:21:46.029Z,12.25
2022-10-13T14:24:13.485Z,15.10
2022-10-13T14:26:41.703Z,14.68
2022-10-13T14:29:08.656Z,14.52
2022-10-13T14:31:35.584Z,13.73
2022-10-13T14:34:02.388Z,14.85
2022-10-13T14:36:29.305Z,15.73
2022-10-13T14:38:56.163Z,14.25
2022-10-13T14:41:23.341Z,15.52
2022-10-13T14:43:54.633Z,14.40
2022-10-13T14:46:22.321Z,14.80
2022-10-13T14:48:49.689Z,15.77
2022-10-13T14:51:17.404Z,13.57
2022-10-13T14:56:55.942Z,13.85
2022-10-13T14:59:24.796Z,15.38
2022-10-13T15:01:51.552Z,14.85
2022-10-13T15:04:18.537Z,15.10
2022-10-13T15:06:45.351Z,15.38
2022-10-13T15:09:13.017Z,15.40
2022-10-13T15:12:01.300Z,14.67
2022-10-13T15:14:29.427Z,16.17
2022-10-13T15:19:55.400Z,15.98
2022-10-13T15:38:28.690Z,16.02
2022-10-13T15:43:33.217Z,18.08
2022-10-13T15:46:02.231Z,18.55
2022-10-13T15:48:29.196Z,17.70
2022-10-13T15:50:56.151Z,19.33
2022-10-13T15:56:22.955Z,19.33
2022-10-13T15:58:49.739Z,19.38
2022-10-13T16:01:16.622Z,18.80
2022-10-13T16:03:43.782Z,19.67
2022-10-13T16:06:12.916Z,19.55
2022-10-13T16:08:42.538Z,20.00
2022-10-13T16:11:10.202Z,19.85
2022-10-13T16:13:38.692Z,20.40
2022-10-13T16:16:05.852Z,20.35
2022-10-13T16:18:34.767Z,21.67
2022-10-13T16:21:08.163Z,19.98
2022-10-13T16:23:34.931Z,20.92
2022-10-13T16:26:02.190Z,19.17
2022-10-13T16:28:28.992Z,20.75
2022-10-13T16:30:57.158Z,19.75
2022-10-13T16:33:23.931Z,20.88
2022-10-13T16:35:50.660Z,20.88
2022-10-13T16:38:17.425Z,21.48
2022-10-13T16:40:44.140Z,20.85
2022-10-13T16:43:10.845Z,21.35
2022-10-13T16:45:58.692Z,21.52
2022-10-13T16:48:25.822Z,20.35
2022-10-13T16:50:52.601Z,21.83
2022-10-13T16:53:19.538Z,23.42
2022-10-13T16:55:46.622Z,24.02
2022-10-13T16:58:13.377Z,23.13
2022-10-13T17:00:40.884Z,23.00
2022-10-13T17:03:07.962Z,23.23
2022-10-13T17:05:36.358Z,23.50
2022-10-13T17:08:03.114Z,22.52
2022-10-13T17:10:29.903Z,23.75
2022-10-13T17:12:56.766Z,23.48
2022-10-13T17:15:24.258Z,24.38
2022-10-13T17:17:51.166Z,23.30
2022-10-13T17:20:18.282Z,23.20
2022-10-13T17:22:46.382Z,23.60
2022-10-13T17:25:13.579Z,24.75
2022-10-13T17:27:40.443Z,23.10
2022-10-13T17:30:08.269Z,25.00
2022-10-13T17:32:37.553Z,24.60
2022-10-13T17:35:04.903Z,24.83
2022-10-13T17:37:31.773Z,24.05
2022-10-13T17:39:59.984Z,24.17
2022-10-13T17:42:28.719Z,22.65
2022-10-13T17:44:55.462Z,23.98
2022-10-13T17:47:22.675Z,23.65
2022-10-13T17:49:50.014Z,22.98
2022-10-13T17:52:16.777Z,23.70
2022-10-13T17:54:43.592Z,23.52
2022-10-13T17:57:11.768Z,23.83
2022-10-13T17:59:38.543Z,23.95
2022-10-13T18:02:05.367Z,23.33
2022-10-13T18:04:32.191Z,23.17
2022-10-13T18:06:58.966Z,24.33
2022-10-13T18:09:25.801Z,24.15
2022-10-13T18:11:53.594Z,25.65
2022-10-13T18:14:23.478Z,25.45
2022-10-13T18:16:50.591Z,25.95
2022-10-13T18:19:17.452Z,25.95
2022-10-13T18:21:44.368Z,25.27
2022-10-13T18:24:11.818Z,26.25
2022-10-13T18:26:39.106Z,25.13
2022-10-13T18:29:07.971Z,25.65
2022-10-13T18:31:38.295Z,24.98
2022-10-13T18:34:07.815Z,25.83
2022-10-13T18:36:36.485Z,26.50
2022-10-13T18:39:06.349Z,25.35
2022-10-13T18:41:35.513Z,23.67
2022-10-13T18:44:03.981Z,25.80
2022-10-13T18:46:30.795Z,24.92
2022-10-13T18:48:58.892Z,25.77
2022-10-13T18:51:25.896Z,24.05
2022-10-13T18:53:52.846Z,23.60
2022-10-13T18:56:22.496Z,23.27
2022-10-13T19:01:24.683Z,24.08
2022-10-13T19:03:53.036Z,23.13
2022-10-13T19:06:27.141Z,23.77
2022-10-13T19:08:56.189Z,24.90
2022-10-13T19:11:23.974Z,23.08
2022-10-13T19:13:51.688Z,23.65
2022-10-13T19:16:20.703Z,22.77
2022-10-13T19:18:48.784Z,22.13
2022-10-13T19:21:16.313Z,22.27
2022-10-13T19:23:44.514Z,23.50
2022-10-13T19:26:15.126Z,23.20
2022-10-13T19:28:42.506Z,21.38
2022-10-13T19:31:10.394Z,19.90
2022-10-13T19:33:43.492Z,22.92
2022-10-13T19:36:19.314Z,20.85
2022-10-13T19:38:47.478Z,22.70
2022-10-13T19:41:14.554Z,21.52
2022-10-13T19:43:41.282Z,21.98
2022-10-13T19:46:08.609Z,20.00
2022-10-13T19:48:35.638Z,20.42
2022-10-13T19:51:04.655Z,21.50
2022-10-13T19:53:31.451Z,21.33
2022-10-13T19:55:59.584Z,21.63
2022-10-13T19:58:26.444Z,22.58
2022-10-13T20:00:53.242Z,22.75
2022-10-13T20:03:20.124Z,21.10
2022-10-13T20:05:46.777Z,20.67
2022-10-13T20:08:13.886Z,21.67
2022-10-13T20:10:42.130Z,22.58
2022-10-13T20:13:11.533Z,22.23
2022-10-13T20:15:39.937Z,21.85
2022-10-13T20:18:08.379Z,22.35
2022-10-13T20:20:35.780Z,21.75
2022-10-13T20:23:02.505Z,21.77
2022-10-13T20:25:29.262Z,24.02
2022-10-13T20:27:56.146Z,22.20
2022-10-13T20:30:24.292Z,23.27
2022-10-13T20:32:51.346Z,21.75
2022-10-13T20:35:18.210Z,22.80
2022-10-13T20:37:44.977Z,22.40
2022-10-13T20:40:12.066Z,21.90
2022-10-13T20:42:39.293Z,23.33
2022-10-13T20:45:07.119Z,21.38
2022-10-13T20:47:35.191Z,22.40
2022-10-13T20:50:02.007Z,21.38
2022-10-13T20:52:28.814Z,21.58
2022-10-13T20:54:55.558Z,21.55
2022-10-13T20:57:22.630Z,20.67
2022-10-13T20:59:49.972Z,22.27
2022-10-13T21:02:17.122Z,21.80
2022-10-13T21:04:45.402Z,20.70
2022-10-13T21:07:12.129Z,21.73
2022-10-13T21:09:38.987Z,21.55
2022-10-13T21:12:06.278Z,22.08
2022-10-13T21:14:33.062Z,21.50
2022-10-13T21:17:00.004Z,22.80
2022-10-13T21:19:29.149Z,19.83
2022-10-13T21:21:57.488Z,21.65
2022-10-13T21:24:24.232Z,20.40
2022-10-13T21:26:51.052Z,20.73
2022-10-13T21:29:17.808Z,21.75
2022-10-13T21:31:44.610Z,21.73
2022-10-13T21:34:12.401Z,21.27
2022-10-13T21:36:43.971Z,21.88
2022-10-13T21:39:12.210Z,21.40
2022-10-13T21:41:39.188Z,19.13
2022-10-13T21:44:05.978Z,20.98
2022-10-13T21:46:34.961Z,20.42
2022-10-13T21:49:04.857Z,19.83
2022-10-13T21:51:34.061Z,18.65
2022-10-13T21:54:03.406Z,20.55
2022-10-13T21:56:32.971Z,21.40
2022-10-13T21:59:00.740Z,20.63
2022-10-13T22:01:27.896Z,19.80
2022-10-13T22:03:56.426Z,20.85
2022-10-13T22:06:24.096Z,20.10
2022-10-13T22:08:53.500Z,20.27
2022-10-13T22:11:21.407Z,21.27
2022-10-13T22:13:49.841Z,18.73
2022-10-13T22:16:19.004Z,20.70
2022-10-13T22:18:45.861Z,19.83
2022-10-13T22:21:15.113Z,19.27
2022-10-13T22:23:42.390Z,19.10
2022-10-13T22:26:09.519Z,20.02
2022-10-13T22:28:37.578Z,19.58
2022-10-13T22:31:06.909Z,20.17
2022-10-13T22:33:35.974Z,20.23
2022-10-13T22:36:07.122Z,19.67
2022-10-13T22:38:34.227Z,19.52
2022-10-13T22:41:02.017Z,18.05
2022-10-13T22:43:29.980Z,19.05
2022-10-13T22:45:56.834Z,20.48
2022-10-13T22:48:24.941Z,18.25
2022-10-13T22:50:51.755Z,19.25
2022-10-13T22:53:18.479Z,18.58
2022-10-13T22:55:45.416Z,18.15
2022-10-13T22:58:12.520Z,18.27
2022-10-13T23:00:42.451Z,19.92
2022-10-13T23:03:14.128Z,18.42
2022-10-13T23:05:43.178Z,18.13
2022-10-13T23:08:11.196Z,19.58
2022-10-13T23:10:37.968Z,18.45
2022-10-13T23:13:05.608Z,19.15
2022-10-13T23:15:32.439Z,20.33
2022-10-13T23:17:59.202Z,20.48
2022-10-13T23:20:26.136Z,18.67
2022-10-13T23:22:54.296Z,20.30
2022-10-13T23:25:21.339Z,20.23
2022-10-13T23:27:50.582Z,19.98
2022-10-13T23:30:17.578Z,20.67
2022-10-13T23:32:44.365Z,20.85
2022-10-13T23:35:11.339Z,19.35
2022-10-13T23:37:38.315Z,18.88
2022-10-13T23:40:07.742Z,19.95
2022-10-13T23:42:34.653Z,18.42
2022-10-13T23:45:01.620Z,18.80
2022-10-13T23:47:28.354Z,18.10
2022-10-13T23:49:55.196Z,18.77
2022-10-13T23:52:22.257Z,18.77
2022-10-13T23:54:49.122Z,19.55
2022-10-13T23:57:22.409Z,17.83
2022-10-13T23:59:49.439Z,18.25
